createdAt,value
2019-02-19T00:01:57.861Z,1.29
2019-02-19T00:04:26.400Z,1.29
2019-02-19T00:06:54.818Z,1.09
2019-02-19T00:09:23.435Z,1.19
2019-02-19T00:11:51.859Z,1.26
2019-02-19T00:14:20.370Z,1.05
2019-02-19T00:16:49.266Z,0.92
2019-02-19T00:19:17.689Z,1.12
2019-02-19T00:21:46.111Z,1.04
2019-02-19T00:24:14.568Z,1.00
2019-02-19T00:26:42.990Z,1.10
2019-02-19T00:29:11.410Z,1.23
2019-02-19T00:31:40.205Z,1.12
2019-02-19T00:34:08.628Z,1.10
2019-02-19T00:36:37.046Z,1.13
2019-02-19T00:39:06.559Z,1.05
2019-02-19T00:41:34.985Z,1.04
2019-02-19T00:44:03.703Z,1.01
2019-02-19T00:46:32.173Z,1.08
2019-02-19T00:49:00.598Z,1.08
2019-02-19T00:51:29.018Z,1.01
2019-02-19T00:53:57.643Z,1.05
2019-02-19T00:56:26.068Z,0.90
2019-02-19T00:58:54.496Z,0.75
2019-02-19T01:01:22.946Z,0.85
2019-02-19T01:03:51.438Z,0.97
2019-02-19T01:06:20.026Z,0.87
2019-02-19T01:08:48.488Z,0.94
2019-02-19T01:11:17.050Z,0.89
2019-02-19T01:13:45.652Z,0.88
2019-02-19T01:16:14.555Z,1.04
2019-02-19T01:18:43.066Z,1.45
2019-02-19T01:21:11.491Z,1.27
2019-02-19T01:23:40.050Z,1.33
2019-02-19T01:26:08.503Z,1.44
2019-02-19T01:28:37.694Z,1.43
2019-02-19T01:31:06.234Z,1.51
2019-02-19T01:33:34.655Z,1.38
2019-02-19T01:36:03.079Z,1.35
2019-02-19T01:38:31.806Z,1.23
2019-02-19T01:41:00.251Z,1.09
2019-02-19T01:43:28.678Z,0.95
2019-02-19T01:45:57.305Z,1.09
2019-02-19T01:48:26.043Z,1.18
2019-02-19T01:50:54.464Z,1.21
2019-02-19T01:53:23.259Z,1.18
2019-02-19T01:55:51.685Z,1.19
2019-02-19T01:58:20.098Z,1.17
2019-02-19T02:00:48.858Z,0.88
2019-02-19T02:03:17.380Z,0.94
2019-02-19T02:05:45.963Z,1.06
2019-02-19T02:08:14.415Z,1.26
2019-02-19T02:10:42.839Z,1.18
2019-02-19T02:13:11.570Z,1.03
2019-02-19T02:15:42.751Z,0.93
2019-02-19T02:18:10.334Z,1.30
2019-02-19T02:20:40.334Z,0.92
2019-02-19T02:23:08.790Z,0.89
2019-02-19T02:25:37.255Z,0.87
2019-02-19T02:28:05.699Z,0.65
2019-02-19T02:30:34.446Z,0.24
2019-02-19T02:33:02.858Z,0.36
2019-02-19T02:35:31.300Z,0.38
2019-02-19T02:37:59.919Z,0.39
2019-02-19T02:40:28.348Z,0.29
2019-02-19T02:42:56.768Z,0.10
2019-02-19T02:45:25.518Z,0.12
2019-02-19T02:47:54.026Z,0.20
2019-02-19T02:50:22.457Z,0.15
2019-02-19T02:52:50.894Z,0.32
2019-02-19T02:55:19.315Z,0.14
2019-02-19T02:57:47.743Z,0.12
2019-02-19T03:00:16.204Z,0.03
2019-02-19T03:02:44.632Z,0.04
2019-02-19T03:05:13.055Z,0.10
2019-02-19T03:07:43.148Z,0.13
2019-02-19T03:10:11.724Z,0.07
2019-02-19T03:12:40.148Z,0.19
2019-02-19T03:15:09.525Z,0.22
2019-02-19T03:17:37.959Z,0.29
2019-02-19T03:20:07.630Z,0.35
2019-02-19T03:22:36.149Z,0.34
2019-02-19T03:25:05.114Z,0.48
2019-02-19T03:27:33.561Z,0.71
2019-02-19T03:30:02.008Z,0.76
2019-02-19T03:32:30.533Z,0.53
2019-02-19T03:34:58.955Z,0.51
2019-02-19T03:37:27.403Z,0.71
2019-02-19T03:39:55.918Z,0.77
2019-02-19T03:42:24.340Z,0.74
2019-02-19T03:44:52.808Z,0.76
2019-02-19T03:47:21.240Z,0.71
2019-02-19T03:49:49.753Z,0.49
2019-02-19T03:52:18.338Z,0.58
2019-02-19T03:54:47.096Z,0.69
2019-02-19T03:57:15.582Z,0.78
2019-02-19T03:59:44.517Z,0.96
2019-02-19T04:02:13.358Z,0.98
2019-02-19T04:04:41.860Z,1.07
2019-02-19T04:07:10.467Z,1.08
2019-02-19T04:09:38.894Z,1.06
2019-02-19T04:12:07.414Z,0.92
2019-02-19T04:14:36.320Z,0.99
2019-02-19T04:17:04.820Z,0.89
2019-02-19T04:19:33.239Z,1.02
2019-02-19T04:22:01.865Z,1.05
2019-02-19T04:24:30.706Z,0.87
2019-02-19T04:26:59.127Z,1.05
2019-02-19T04:29:27.871Z,1.19
2019-02-19T04:31:56.408Z,1.13
2019-02-19T04:34:25.139Z,0.97
2019-02-19T04:36:53.927Z,1.08
2019-02-19T04:39:22.372Z,0.91
2019-02-19T04:41:50.801Z,0.87
2019-02-19T04:44:19.348Z,1.01
2019-02-19T04:46:47.867Z,1.07
2019-02-19T04:49:16.294Z,1.24
2019-02-19T04:51:44.754Z,1.35
2019-02-19T04:54:13.174Z,1.28
2019-02-19T04:56:41.595Z,1.44
2019-02-19T04:59:10.062Z,1.52
2019-02-19T05:01:38.507Z,1.62
2019-02-19T05:04:06.927Z,1.83
2019-02-19T05:06:35.385Z,1.95
2019-02-19T05:09:04.748Z,1.66
2019-02-19T05:11:33.168Z,1.58
2019-02-19T05:14:01.630Z,1.57
2019-02-19T05:16:30.052Z,1.57
2019-02-19T05:18:58.474Z,1.54
2019-02-19T05:21:26.942Z,1.60
2019-02-19T05:23:55.358Z,1.46
2019-02-19T05:26:23.784Z,1.53
2019-02-19T05:28:52.414Z,1.49
2019-02-19T05:31:20.855Z,1.53
2019-02-19T05:33:49.254Z,1.55
2019-02-19T05:36:18.398Z,1.49
2019-02-19T05:38:47.186Z,1.53
2019-02-19T05:41:15.616Z,1.45
2019-02-19T05:43:44.150Z,1.44
2019-02-19T05:46:12.948Z,1.51
2019-02-19T05:48:41.359Z,1.71
2019-02-19T05:51:09.814Z,1.93
2019-02-19T05:53:38.244Z,1.78
2019-02-19T05:56:06.667Z,1.96
2019-02-19T05:58:35.118Z,1.92
2019-02-19T06:01:03.830Z,1.86
2019-02-19T06:03:32.246Z,1.89
2019-02-19T06:06:00.785Z,2.01
2019-02-19T06:08:29.318Z,2.00
2019-02-19T06:10:57.745Z,2.13
2019-02-19T06:13:26.191Z,2.06
2019-02-19T06:15:54.916Z,2.25
2019-02-19T06:18:23.340Z,2.10
2019-02-19T06:20:51.800Z,2.01
2019-02-19T06:23:20.274Z,1.95
2019-02-19T06:25:48.644Z,1.93
2019-02-19T06:28:17.092Z,1.89
2019-02-19T06:30:45.511Z,1.97
2019-02-19T06:33:13.961Z,1.98
2019-02-19T06:35:42.411Z,1.98
2019-02-19T06:38:10.830Z,1.97
2019-02-19T06:40:39.343Z,1.93
2019-02-19T06:43:07.798Z,1.95
2019-02-19T06:45:36.218Z,1.98
2019-02-19T06:48:05.558Z,1.98
2019-02-19T06:50:34.002Z,2.10
2019-02-19T06:53:02.426Z,2.12
2019-02-19T06:55:30.939Z,2.21
2019-02-19T06:57:59.388Z,2.27
2019-02-19T07:00:27.906Z,2.32
2019-02-19T07:02:57.976Z,2.34
2019-02-19T07:05:26.435Z,2.57
2019-02-19T07:07:54.887Z,2.71
2019-02-19T07:10:23.576Z,2.78
2019-02-19T07:12:52.115Z,3.02
2019-02-19T07:15:20.623Z,2.84
2019-02-19T07:17:49.027Z,3.02
2019-02-19T07:20:17.495Z,3.36
2019-02-19T07:22:46.274Z,3.67
2019-02-19T07:25:14.840Z,3.54
2019-02-19T07:27:43.376Z,3.77
2019-02-19T07:30:12.535Z,3.47
2019-02-19T07:32:41.055Z,3.43
2019-02-19T07:35:10.639Z,3.47
2019-02-19T07:37:39.138Z,3.52
2019-02-19T07:40:08.917Z,3.52
2019-02-19T07:42:37.365Z,3.61
2019-02-19T07:45:10.085Z,3.55
2019-02-19T07:47:38.581Z,3.60
2019-02-19T07:50:11.875Z,3.72
2019-02-19T07:52:40.309Z,3.78
2019-02-19T07:55:10.363Z,3.85
2019-02-19T07:57:38.811Z,4.01
2019-02-19T08:00:10.922Z,4.18
2019-02-19T08:02:39.430Z,4.41
2019-02-19T08:05:08.414Z,4.56
2019-02-19T08:07:37.258Z,4.41
2019-02-19T08:10:08.735Z,4.37
2019-02-19T08:12:37.348Z,4.21
2019-02-19T08:15:08.708Z,4.31
2019-02-19T08:17:37.441Z,4.31
2019-02-19T08:20:15.367Z,4.45
2019-02-19T08:22:38.711Z,4.55
2019-02-19T08:25:07.376Z,4.49
2019-02-19T08:27:35.828Z,4.45
2019-02-19T08:30:06.154Z,4.57
2019-02-19T08:32:34.575Z,4.42
2019-02-19T08:35:03.362Z,4.54
2019-02-19T08:37:31.775Z,4.48
2019-02-19T08:40:00.306Z,4.45
2019-02-19T08:42:28.832Z,4.50
2019-02-19T08:44:57.272Z,4.54
2019-02-19T08:47:25.792Z,4.60
2019-02-19T08:49:54.367Z,4.71
2019-02-19T08:52:22.814Z,4.82
2019-02-19T08:54:51.242Z,4.89
2019-02-19T08:57:19.695Z,4.88
2019-02-19T08:59:48.216Z,5.03
2019-02-19T09:02:16.645Z,5.08
2019-02-19T09:04:45.101Z,5.11
2019-02-19T09:07:13.527Z,5.18
2019-02-19T09:09:41.962Z,5.23
2019-02-19T09:12:11.571Z,5.11
2019-02-19T09:14:40.124Z,5.09
2019-02-19T09:17:08.558Z,5.12
2019-02-19T09:19:37.021Z,4.99
2019-02-19T09:22:05.454Z,5.04
2019-02-19T09:24:33.885Z,5.20
2019-02-19T09:27:02.413Z,5.29
2019-02-19T09:29:30.850Z,5.24
2019-02-19T09:31:59.285Z,5.22
2019-02-19T09:34:27.740Z,5.23
2019-02-19T09:36:56.174Z,5.24
2019-02-19T09:39:24.719Z,5.39
2019-02-19T09:41:53.194Z,5.39
2019-02-19T09:44:21.629Z,5.48
2019-02-19T09:46:50.057Z,5.55
2019-02-19T09:49:18.522Z,5.63
2019-02-19T09:51:46.958Z,5.63
2019-02-19T09:54:15.392Z,5.64
2019-02-19T09:56:43.859Z,5.63
2019-02-19T09:59:12.289Z,5.69
2019-02-19T10:01:40.811Z,5.79
2019-02-19T10:04:09.274Z,5.90
2019-02-19T10:06:37.798Z,6.00
2019-02-19T10:09:08.079Z,6.04
2019-02-19T10:11:36.542Z,6.17
2019-02-19T10:14:05.133Z,6.28
2019-02-19T10:16:41.419Z,6.36
2019-02-19T10:19:03.771Z,6.45
2019-02-19T10:21:32.206Z,6.55
2019-02-19T10:24:00.643Z,6.59
2019-02-19T10:26:29.207Z,6.67
2019-02-19T10:28:57.729Z,6.76
2019-02-19T10:31:26.161Z,6.73
2019-02-19T10:33:54.626Z,6.78
2019-02-19T10:36:23.244Z,6.92
2019-02-19T10:38:52.025Z,7.01
2019-02-19T10:41:20.834Z,7.13
2019-02-19T10:43:49.275Z,7.23
2019-02-19T10:46:17.710Z,7.33
2019-02-19T10:48:46.162Z,7.52
2019-02-19T10:51:14.689Z,7.64
2019-02-19T10:53:43.128Z,7.76
2019-02-19T10:56:11.903Z,7.88
2019-02-19T10:58:40.597Z,7.91
2019-02-19T11:01:09.096Z,8.12
2019-02-19T11:03:37.661Z,8.36
2019-02-19T11:06:06.081Z,8.28
2019-02-19T11:08:34.829Z,8.26
2019-02-19T11:11:03.557Z,8.47
2019-02-19T11:13:31.972Z,8.36
2019-02-19T11:16:00.393Z,8.39
2019-02-19T11:18:29.070Z,8.32
2019-02-19T11:20:57.565Z,8.44
2019-02-19T11:23:25.993Z,8.40
2019-02-19T11:25:54.449Z,8.64
2019-02-19T11:28:22.871Z,9.09
2019-02-19T11:30:51.308Z,9.06
2019-02-19T11:33:19.750Z,9.09
2019-02-19T11:35:48.174Z,9.33
2019-02-19T11:38:16.599Z,9.22
2019-02-19T11:40:45.049Z,9.56
2019-02-19T11:43:13.562Z,9.59
2019-02-19T11:45:41.984Z,9.75
2019-02-19T11:48:10.443Z,9.84
2019-02-19T11:50:39.207Z,10.00
2019-02-19T11:53:07.630Z,10.05
2019-02-19T11:55:36.092Z,10.36
2019-02-19T11:58:04.540Z,10.45
2019-02-19T12:00:34.671Z,10.59
2019-02-19T12:03:03.216Z,10.78
2019-02-19T12:05:31.631Z,10.66
2019-02-19T12:08:00.522Z,10.44
2019-02-19T12:10:29.072Z,10.23
2019-02-19T12:12:57.514Z,10.04
2019-02-19T12:15:34.680Z,10.10
2019-02-19T12:17:56.186Z,9.89
2019-02-19T12:20:24.606Z,9.97
2019-02-19T12:22:53.041Z,10.09
2019-02-19T12:25:21.491Z,10.33
2019-02-19T12:27:50.221Z,10.58
2019-02-19T12:30:19.894Z,10.51
2019-02-19T12:32:48.344Z,10.52
2019-02-19T12:35:17.095Z,10.44
2019-02-19T12:37:45.623Z,10.47
2019-02-19T12:40:14.947Z,10.69
2019-02-19T12:42:43.446Z,10.92
2019-02-19T12:45:13.411Z,10.80
2019-02-19T12:47:41.951Z,10.82
2019-02-19T12:50:12.816Z,10.86
2019-02-19T12:52:41.584Z,10.82
2019-02-19T12:55:10.885Z,10.58
2019-02-19T12:57:39.389Z,10.45
2019-02-19T13:00:13.889Z,10.52
2019-02-19T13:02:44.053Z,10.40
2019-02-19T13:05:14.235Z,10.42
2019-02-19T13:07:42.634Z,10.63
2019-02-19T13:10:12.132Z,10.92
2019-02-19T13:12:40.634Z,11.05
2019-02-19T13:15:14.396Z,11.11
2019-02-19T13:17:42.870Z,11.20
2019-02-19T13:20:13.460Z,11.30
2019-02-19T13:22:41.922Z,11.09
2019-02-19T13:25:11.408Z,11.24
2019-02-19T13:27:40.001Z,11.14
2019-02-19T13:30:11.569Z,11.04
2019-02-19T13:32:40.031Z,10.97
2019-02-19T13:35:11.159Z,10.82
2019-02-19T13:37:39.947Z,10.91
2019-02-19T13:40:17.747Z,10.71
2019-02-19T13:42:46.175Z,10.90
2019-02-19T13:45:15.539Z,11.01
2019-02-19T13:47:43.995Z,11.15
2019-02-19T13:50:18.227Z,11.17
2019-02-19T13:52:57.419Z,11.20
2019-02-19T13:55:27.487Z,11.23
2019-02-19T13:57:57.352Z,11.01
2019-02-19T14:00:27.968Z,11.22
2019-02-19T14:02:56.399Z,11.06
2019-02-19T14:05:25.737Z,11.19
2019-02-19T14:07:54.439Z,11.35
2019-02-19T14:10:22.856Z,11.31
2019-02-19T14:12:51.284Z,11.58
2019-02-19T14:15:36.827Z,11.58
2019-02-19T14:18:07.256Z,11.63
2019-02-19T14:20:37.411Z,11.58
2019-02-19T14:23:16.018Z,11.48
2019-02-19T14:25:51.624Z,11.49
2019-02-19T14:28:21.732Z,11.49
2019-02-19T14:31:00.844Z,11.26
2019-02-19T14:33:36.766Z,11.32
2019-02-19T14:36:23.144Z,11.27
2019-02-19T14:39:08.125Z,11.40
2019-02-19T14:41:43.783Z,11.37
2019-02-19T14:44:13.881Z,11.41
2019-02-19T14:46:46.671Z,11.44
2019-02-19T14:49:16.743Z,11.24
2019-02-19T14:51:47.116Z,11.30
2019-02-19T14:54:22.991Z,11.50
2019-02-19T14:56:53.113Z,11.45
2019-02-19T14:59:35.701Z,11.34
2019-02-19T15:02:05.874Z,11.36
2019-02-19T15:04:51.928Z,11.48
2019-02-19T15:07:37.572Z,11.59
2019-02-19T15:10:19.508Z,11.60
2019-02-19T15:12:49.657Z,11.53
2019-02-19T15:15:25.948Z,11.25
2019-02-19T15:18:08.485Z,11.33
2019-02-19T15:20:44.552Z,11.25
2019-02-19T15:23:14.724Z,11.37
2019-02-19T15:26:01.088Z,11.42
2019-02-19T15:28:37.079Z,11.43
2019-02-19T15:31:25.583Z,11.50
2019-02-19T15:34:07.691Z,11.24
2019-02-19T15:36:53.877Z,11.26
2019-02-19T15:39:39.901Z,11.36
2019-02-19T15:42:10.072Z,11.23
2019-02-19T15:44:45.852Z,11.08
2019-02-19T15:47:18.731Z,10.93
2019-02-19T15:50:05.004Z,11.03
2019-02-19T15:52:51.535Z,11.00
2019-02-19T15:55:40.536Z,10.76
2019-02-19T15:58:10.815Z,10.89
2019-02-19T16:00:40.879Z,10.82
2019-02-19T16:03:11.008Z,10.95
2019-02-19T16:05:53.846Z,10.92
2019-02-19T16:08:23.967Z,10.84
2019-02-19T16:10:56.699Z,10.49
2019-02-19T16:13:26.767Z,10.63
2019-02-19T16:16:09.404Z,10.58
2019-02-19T16:18:55.789Z,10.54
2019-02-19T16:21:28.839Z,10.53
2019-02-19T16:24:04.665Z,10.24
2019-02-19T16:26:37.518Z,10.30
2019-02-19T16:29:13.630Z,10.15
2019-02-19T16:31:49.501Z,10.20
2019-02-19T16:34:25.562Z,10.09
2019-02-19T16:36:55.703Z,9.86
2019-02-19T16:39:44.024Z,9.76
2019-02-19T16:42:29.403Z,9.83
2019-02-19T16:45:02.441Z,9.70
2019-02-19T16:47:38.335Z,9.50
2019-02-19T16:50:10.940Z,9.50
2019-02-19T16:52:59.598Z,9.57
2019-02-19T16:55:29.666Z,9.37
2019-02-19T16:57:59.731Z,9.33
2019-02-19T17:00:35.416Z,9.24
2019-02-19T17:03:05.502Z,9.11
2019-02-19T17:05:47.675Z,9.01
2019-02-19T17:08:17.807Z,9.00
2019-02-19T17:10:47.871Z,8.92
2019-02-19T17:13:24.235Z,8.92
2019-02-19T17:16:00.422Z,8.81
2019-02-19T17:18:33.727Z,8.65
2019-02-19T17:21:03.884Z,8.56
2019-02-19T17:23:37.231Z,8.55
2019-02-19T17:26:07.341Z,8.59
2019-02-19T17:28:37.386Z,8.54
2019-02-19T17:31:07.539Z,8.76
2019-02-19T17:33:40.922Z,8.43
2019-02-19T17:36:23.069Z,8.44
2019-02-19T17:38:59.275Z,8.24
2019-02-19T17:41:29.335Z,8.03
2019-02-19T17:44:02.439Z,7.90
2019-02-19T17:46:50.646Z,7.73
2019-02-19T17:49:27.151Z,7.36
2019-02-19T17:52:01.135Z,7.15
2019-02-19T17:54:31.195Z,7.00
2019-02-19T17:57:17.691Z,6.89
2019-02-19T18:00:02.765Z,6.75
2019-02-19T18:02:33.212Z,6.60
2019-02-19T18:05:15.817Z,6.42
2019-02-19T18:07:58.112Z,6.28
2019-02-19T18:10:28.175Z,6.11
2019-02-19T18:13:16.359Z,5.83
2019-02-19T18:15:46.581Z,5.81
2019-02-19T18:18:22.943Z,5.93
2019-02-19T18:20:51.453Z,5.61
2019-02-19T18:23:19.967Z,5.42
2019-02-19T18:25:48.887Z,5.50
2019-02-19T18:28:17.311Z,5.56
2019-02-19T18:30:45.730Z,5.42
2019-02-19T18:33:14.180Z,5.33
2019-02-19T18:35:42.608Z,5.41
2019-02-19T18:38:11.815Z,5.78
2019-02-19T18:40:40.359Z,5.49
2019-02-19T18:43:09.196Z,5.18
2019-02-19T18:45:37.610Z,4.90
2019-02-19T18:48:06.063Z,4.91
2019-02-19T18:50:34.483Z,4.79
2019-02-19T18:53:02.904Z,4.72
2019-02-19T18:55:31.856Z,4.61
2019-02-19T18:58:00.370Z,4.32
2019-02-19T19:00:28.886Z,4.45
2019-02-19T19:02:57.614Z,4.76
2019-02-19T19:05:26.356Z,4.55
2019-02-19T19:07:54.768Z,4.54
2019-02-19T19:10:23.318Z,4.88
2019-02-19T19:12:51.992Z,4.84
2019-02-19T19:15:20.488Z,5.17
2019-02-19T19:17:49.264Z,5.09
2019-02-19T19:20:17.817Z,4.88
2019-02-19T19:22:47.136Z,4.76
2019-02-19T19:25:15.716Z,4.79
2019-02-19T19:27:44.521Z,4.86
2019-02-19T19:30:14.889Z,4.87
2019-02-19T19:32:43.644Z,4.66
2019-02-19T19:35:12.333Z,4.72
2019-02-19T19:37:41.153Z,4.72
2019-02-19T19:40:11.903Z,4.51
2019-02-19T19:42:40.425Z,4.51
2019-02-19T19:45:11.468Z,4.39
2019-02-19T19:47:39.966Z,4.31
2019-02-19T19:50:10.837Z,4.25
2019-02-19T19:52:39.727Z,4.56
2019-02-19T19:55:10.388Z,4.54
2019-02-19T19:57:38.921Z,4.99
2019-02-19T20:00:12.823Z,5.43
2019-02-19T20:02:41.490Z,5.34
2019-02-19T20:05:10.805Z,5.34
2019-02-19T20:07:39.326Z,5.67
2019-02-19T20:10:10.915Z,5.81
2019-02-19T20:12:39.453Z,5.44
2019-02-19T20:15:10.881Z,4.97
2019-02-19T20:17:39.461Z,4.91
2019-02-19T20:20:12.767Z,4.65
2019-02-19T20:22:41.238Z,4.34
2019-02-19T20:25:11.971Z,4.19
2019-02-19T20:27:40.714Z,4.05
2019-02-19T20:30:16.686Z,3.96
2019-02-19T20:32:45.270Z,4.52
2019-02-19T20:35:13.816Z,4.31
2019-02-19T20:37:42.271Z,4.44
2019-02-19T20:40:12.152Z,4.75
2019-02-19T20:42:40.700Z,4.66
2019-02-19T20:45:13.175Z,4.95
2019-02-19T20:47:41.828Z,5.10
2019-02-19T20:50:11.659Z,5.56
2019-02-19T20:52:40.389Z,5.64
2019-02-19T20:55:10.830Z,5.53
2019-02-19T20:57:39.560Z,4.88
2019-02-19T21:00:18.169Z,4.56
2019-02-19T21:02:47.139Z,4.33
2019-02-19T21:05:16.781Z,4.42
2019-02-19T21:07:45.293Z,3.93
2019-02-19T21:10:18.807Z,3.85
2019-02-19T21:12:47.336Z,3.86
2019-02-19T21:15:15.843Z,3.82
2019-02-19T21:17:44.553Z,3.68
2019-02-19T21:20:13.315Z,3.36
2019-02-19T21:22:41.928Z,3.46
2019-02-19T21:25:11.568Z,3.33
2019-02-19T21:27:39.990Z,3.54
2019-02-19T21:30:12.091Z,3.80
2019-02-19T21:32:40.514Z,3.78
2019-02-19T21:35:09.927Z,3.83
2019-02-19T21:37:38.656Z,3.73
2019-02-19T21:40:12.486Z,3.71
2019-02-19T21:42:41.257Z,3.60
2019-02-19T21:45:12.286Z,3.54
2019-02-19T21:47:40.733Z,3.42
2019-02-19T21:50:15.571Z,3.43
2019-02-19T21:52:44.184Z,3.24
2019-02-19T21:55:13.451Z,3.00
2019-02-19T21:57:41.884Z,2.94
2019-02-19T22:00:19.198Z,2.81
2019-02-19T22:02:47.720Z,2.86
2019-02-19T22:05:16.442Z,2.55
2019-02-19T22:07:45.259Z,2.49
2019-02-19T22:10:14.751Z,2.40
2019-02-19T22:12:43.507Z,2.25
2019-02-19T22:15:13.495Z,2.35
2019-02-19T22:17:42.151Z,2.39
2019-02-19T22:20:32.178Z,2.36
2019-02-19T22:23:00.984Z,2.60
2019-02-19T22:25:29.418Z,2.68
2019-02-19T22:27:58.149Z,2.58
2019-02-19T22:30:26.565Z,2.58
2019-02-19T22:32:55.054Z,2.51
2019-02-19T22:35:23.570Z,2.40
2019-02-19T22:37:51.992Z,2.40
2019-02-19T22:40:20.478Z,2.20
2019-02-19T22:42:49.055Z,2.06
2019-02-19T22:45:17.496Z,1.87
2019-02-19T22:47:53.158Z,1.79
2019-02-19T22:50:16.168Z,1.90
2019-02-19T22:52:45.114Z,1.70
2019-02-19T22:55:18.320Z,1.48
2019-02-19T22:57:46.768Z,1.47
2019-02-19T23:00:19.880Z,1.48
2019-02-19T23:02:48.663Z,1.58
2019-02-19T23:05:17.120Z,1.43
2019-02-19T23:07:45.538Z,1.63
2019-02-19T23:10:14.031Z,1.52
2019-02-19T23:12:42.555Z,1.67
2019-02-19T23:15:11.004Z,1.41
2019-02-19T23:17:39.500Z,1.44
2019-02-19T23:20:08.137Z,1.46
2019-02-19T23:22:36.731Z,1.37
2019-02-19T23:25:06.313Z,1.36
2019-02-19T23:27:34.767Z,1.10
2019-02-19T23:30:03.188Z,1.26
2019-02-19T23:32:31.612Z,1.25
2019-02-19T23:35:13.771Z,1.30
2019-02-19T23:37:42.262Z,1.16
2019-02-19T23:40:10.762Z,1.23
2019-02-19T23:42:39.231Z,1.10
2019-02-19T23:45:09.226Z,1.27
2019-02-19T23:47:37.666Z,1.08
2019-02-19T23:50:07.951Z,0.91
2019-02-19T23:52:36.375Z,0.97
2019-02-19T23:55:07.072Z,0.83
2019-02-19T23:57:35.596Z,0.74
